sensor_id;sensor_type;location;lat;lon;timestamp;P1;durP1;ratioP1;P2;durP2;ratioP2
21030;SDS011;61072;47.808;7.636;2022-12-18T00:01:25;42.92;;;16.02;;
21030;SDS011;61072;47.808;7.636;2022-12-18T00:03:54;35.63;;;14.93;;
21030;SDS011;61072;47.808;7.636;2022-12-18T00:06:22;35.13;;;16.33;;
21030;SDS011;61072;47.808;7.636;2022-12-18T00:08:51;34.03;;;15.80;;
21030;SDS011;61072;47.808;7.636;2022-12-18T00:11:18;39.22;;;16.17;;
21030;SDS011;61072;47.808;7.636;2022-12-18T00:13:46;44.37;;;15.67;;
21030;SDS011;61072;47.808;7.636;2022-12-18T00:16:15;34.13;;;15.95;;
21030;SDS011;61072;47.808;7.636;2022-12-18T00:18:47;33.42;;;14.68;;
21030;SDS011;61072;47.808;7.636;2022-12-18T00:21:14;39.80;;;16.35;;
21030;SDS011;61072;47.808;7.636;2022-12-18T00:23:42;47.08;;;17.27;;
21030;SDS011;61072;47.808;7.636;2022-12-18T00:26:11;50.17;;;17.70;;
21030;SDS011;61072;47.808;7.636;2022-12-18T00:28:46;44.70;;;16.92;;
21030;SDS011;61072;47.808;7.636;2022-12-18T00:31:14;54.63;;;19.33;;
21030;SDS011;61072;47.808;7.636;2022-12-18T00:36:11;43.90;;;17.80;;
21030;SDS011;61072;47.808;7.636;2022-12-18T00:38:37;53.30;;;19.80;;
21030;SDS011;61072;47.808;7.636;2022-12-18T00:41:06;77.65;;;18.48;;
21030;SDS011;61072;47.808;7.636;2022-12-18T00:43:33;54.08;;;17.25;;
21030;SDS011;61072;47.808;7.636;2022-12-18T00:46:00;54.78;;;17.65;;
21030;SDS011;61072;47.808;7.636;2022-12-18T00:48:27;60.53;;;17.45;;
21030;SDS011;61072;47.808;7.636;2022-12-18T00:50:54;63.55;;;18.00;;
21030;SDS011;61072;47.808;7.636;2022-12-18T00:53:20;67.47;;;17.02;;
21030;SDS011;61072;47.808;7.636;2022-12-18T00:55:47;60.72;;;17.00;;
21030;SDS011;61072;47.808;7.636;2022-12-18T00:58:15;69.70;;;16.52;;
21030;SDS011;61072;47.808;7.636;2022-12-18T01:00:42;43.28;;;17.02;;
21030;SDS011;61072;47.808;7.636;2022-12-18T01:03:10;48.05;;;15.80;;
21030;SDS011;61072;47.808;7.636;2022-12-18T01:05:40;64.88;;;14.35;;
21030;SDS011;61072;47.808;7.636;2022-12-18T01:08:07;49.38;;;14.45;;
21030;SDS011;61072;47.808;7.636;2022-12-18T01:10:34;44.08;;;16.48;;
21030;SDS011;61072;47.808;7.636;2022-12-18T01:13:01;53.95;;;15.68;;
21030;SDS011;61072;47.808;7.636;2022-12-18T01:15:28;42.28;;;16.45;;
21030;SDS011;61072;47.808;7.636;2022-12-18T01:17:54;39.05;;;14.57;;
21030;SDS011;61072;47.808;7.636;2022-12-18T01:20:21;40.33;;;15.32;;
21030;SDS011;61072;47.808;7.636;2022-12-18T01:22:48;50.58;;;13.48;;
21030;SDS011;61072;47.808;7.636;2022-12-18T01:25:14;79.40;;;13.25;;
21030;SDS011;61072;47.808;7.636;2022-12-18T01:27:41;34.03;;;12.32;;
21030;SDS011;61072;47.808;7.636;2022-12-18T01:30:08;40.17;;;13.30;;
21030;SDS011;61072;47.808;7.636;2022-12-18T01:32:35;42.33;;;13.77;;
21030;SDS011;61072;47.808;7.636;2022-12-18T01:35:02;47.10;;;14.05;;
21030;SDS011;61072;47.808;7.636;2022-12-18T01:37:29;39.28;;;14.77;;
21030;SDS011;61072;47.808;7.636;2022-12-18T01:39:56;36.47;;;14.70;;
21030;SDS011;61072;47.808;7.636;2022-12-18T01:42:22;35.25;;;13.73;;
21030;SDS011;61072;47.808;7.636;2022-12-18T01:44:52;34.75;;;14.82;;
21030;SDS011;61072;47.808;7.636;2022-12-18T01:47:45;28.40;;;12.63;;
21030;SDS011;61072;47.808;7.636;2022-12-18T01:50:15;33.17;;;13.52;;
21030;SDS011;61072;47.808;7.636;2022-12-18T01:52:46;35.03;;;13.70;;
21030;SDS011;61072;47.808;7.636;2022-12-18T01:55:15;36.90;;;14.65;;
21030;SDS011;61072;47.808;7.636;2022-12-18T01:57:44;37.13;;;15.52;;
21030;SDS011;61072;47.808;7.636;2022-12-18T02:00:13;30.13;;;13.60;;
21030;SDS011;61072;47.808;7.636;2022-12-18T02:02:43;28.85;;;13.40;;
21030;SDS011;61072;47.808;7.636;2022-12-18T02:05:13;33.15;;;13.10;;
21030;SDS011;61072;47.808;7.636;2022-12-18T02:10:27;26.60;;;12.00;;
21030;SDS011;61072;47.808;7.636;2022-12-18T02:18:38;31.52;;;13.38;;
21030;SDS011;61072;47.808;7.636;2022-12-18T02:24:01;35.75;;;14.43;;
21030;SDS011;61072;47.808;7.636;2022-12-18T02:26:34;27.27;;;12.43;;
21030;SDS011;61072;47.808;7.636;2022-12-18T02:29:12;29.95;;;13.40;;
21030;SDS011;61072;47.808;7.636;2022-12-18T02:31:53;58.72;;;14.75;;
21030;SDS011;61072;47.808;7.636;2022-12-18T02:34:24;73.80;;;15.32;;
21030;SDS011;61072;47.808;7.636;2022-12-18T02:36:55;42.03;;;15.48;;
21030;SDS011;61072;47.808;7.636;2022-12-18T02:39:25;30.08;;;12.57;;
21030;SDS011;61072;47.808;7.636;2022-12-18T02:41:53;58.00;;;15.27;;
21030;SDS011;61072;47.808;7.636;2022-12-18T02:44:20;43.25;;;14.85;;
21030;SDS011;61072;47.808;7.636;2022-12-18T02:46:48;41.85;;;14.80;;
21030;SDS011;61072;47.808;7.636;2022-12-18T02:49:22;41.00;;;14.88;;
21030;SDS011;61072;47.808;7.636;2022-12-18T02:51:52;43.33;;;15.48;;
21030;SDS011;61072;47.808;7.636;2022-12-18T02:54:29;51.08;;;16.27;;
21030;SDS011;61072;47.808;7.636;2022-12-18T03:02:40;42.70;;;14.98;;
21030;SDS011;61072;47.808;7.636;2022-12-18T03:05:12;42.67;;;15.13;;
21030;SDS011;61072;47.808;7.636;2022-12-18T03:07:53;34.05;;;13.05;;
21030;SDS011;61072;47.808;7.636;2022-12-18T03:10:29;32.88;;;13.98;;
21030;SDS011;61072;47.808;7.636;2022-12-18T03:13:01;29.42;;;13.35;;
21030;SDS011;61072;47.808;7.636;2022-12-18T03:15:36;39.33;;;14.40;;
21030;SDS011;61072;47.808;7.636;2022-12-18T03:18:09;25.80;;;12.52;;
21030;SDS011;61072;47.808;7.636;2022-12-18T03:20:41;32.33;;;13.15;;
21030;SDS011;61072;47.808;7.636;2022-12-18T03:23:11;36.15;;;14.77;;
21030;SDS011;61072;47.808;7.636;2022-12-18T03:25:43;35.75;;;14.23;;
21030;SDS011;61072;47.808;7.636;2022-12-18T03:28:13;40.55;;;14.93;;
21030;SDS011;61072;47.808;7.636;2022-12-18T03:30:43;25.80;;;11.95;;
21030;SDS011;61072;47.808;7.636;2022-12-18T03:33:16;28.35;;;12.52;;
21030;SDS011;61072;47.808;7.636;2022-12-18T03:35:53;29.90;;;13.85;;
21030;SDS011;61072;47.808;7.636;2022-12-18T03:38:21;31.23;;;12.68;;
21030;SDS011;61072;47.808;7.636;2022-12-18T03:46:05;29.90;;;13.90;;
21030;SDS011;61072;47.808;7.636;2022-12-18T03:48:51;35.40;;;14.35;;
21030;SDS011;61072;47.808;7.636;2022-12-18T03:51:24;37.85;;;15.18;;
21030;SDS011;61072;47.808;7.636;2022-12-18T03:54:02;32.15;;;14.27;;
21030;SDS011;61072;47.808;7.636;2022-12-18T03:56:34;29.27;;;12.55;;
21030;SDS011;61072;47.808;7.636;2022-12-18T03:59:05;38.35;;;14.35;;
21030;SDS011;61072;47.808;7.636;2022-12-18T04:01:34;31.25;;;13.63;;
21030;SDS011;61072;47.808;7.636;2022-12-18T04:04:07;29.67;;;12.05;;
21030;SDS011;61072;47.808;7.636;2022-12-18T04:06:36;31.50;;;12.82;;
21030;SDS011;61072;47.808;7.636;2022-12-18T04:09:04;37.88;;;14.35;;
21030;SDS011;61072;47.808;7.636;2022-12-18T04:11:31;33.85;;;14.55;;
21030;SDS011;61072;47.808;7.636;2022-12-18T04:13:58;33.35;;;15.02;;
21030;SDS011;61072;47.808;7.636;2022-12-18T04:16:28;32.53;;;13.32;;
21030;SDS011;61072;47.808;7.636;2022-12-18T04:18:55;35.58;;;13.38;;
21030;SDS011;61072;47.808;7.636;2022-12-18T04:21:21;34.40;;;13.18;;
21030;SDS011;61072;47.808;7.636;2022-12-18T04:23:49;30.00;;;12.80;;
21030;SDS011;61072;47.808;7.636;2022-12-18T04:26:16;37.42;;;14.43;;
21030;SDS011;61072;47.808;7.636;2022-12-18T04:28:42;38.33;;;12.98;;
21030;SDS011;61072;47.808;7.636;2022-12-18T04:31:09;37.03;;;13.70;;
21030;SDS011;61072;47.808;7.636;2022-12-18T04:33:36;31.88;;;12.38;;
21030;SDS011;61072;47.808;7.636;2022-12-18T04:36:03;27.95;;;12.82;;
21030;SDS011;61072;47.808;7.636;2022-12-18T04:38:31;28.13;;;12.70;;
21030;SDS011;61072;47.808;7.636;2022-12-18T04:40:58;30.50;;;12.85;;
21030;SDS011;61072;47.808;7.636;2022-12-18T04:43:25;26.02;;;11.57;;
21030;SDS011;61072;47.808;7.636;2022-12-18T04:45:51;23.60;;;11.27;;
21030;SDS011;61072;47.808;7.636;2022-12-18T04:48:18;23.33;;;10.48;;
21030;SDS011;61072;47.808;7.636;2022-12-18T04:50:46;27.10;;;11.82;;
21030;SDS011;61072;47.808;7.636;2022-12-18T04:53:14;25.25;;;11.13;;
21030;SDS011;61072;47.808;7.636;2022-12-18T04:55:40;27.52;;;11.77;;
21030;SDS011;61072;47.808;7.636;2022-12-18T04:58:07;35.60;;;13.10;;
21030;SDS011;61072;47.808;7.636;2022-12-18T05:00:34;25.38;;;10.88;;
21030;SDS011;61072;47.808;7.636;2022-12-18T05:03:02;35.67;;;12.85;;
21030;SDS011;61072;47.808;7.636;2022-12-18T05:05:29;29.02;;;12.48;;
21030;SDS011;61072;47.808;7.636;2022-12-18T05:07:55;35.05;;;12.25;;
21030;SDS011;61072;47.808;7.636;2022-12-18T05:10:22;40.13;;;14.38;;
21030;SDS011;61072;47.808;7.636;2022-12-18T05:12:49;31.27;;;13.00;;
21030;SDS011;61072;47.808;7.636;2022-12-18T05:15:27;30.80;;;13.02;;
21030;SDS011;61072;47.808;7.636;2022-12-18T05:17:55;34.67;;;13.15;;
21030;SDS011;61072;47.808;7.636;2022-12-18T05:20:23;33.65;;;13.55;;
21030;SDS011;61072;47.808;7.636;2022-12-18T05:22:50;36.50;;;12.73;;
21030;SDS011;61072;47.808;7.636;2022-12-18T05:25:18;39.50;;;14.07;;
21030;SDS011;61072;47.808;7.636;2022-12-18T05:27:46;35.08;;;13.60;;
21030;SDS011;61072;47.808;7.636;2022-12-18T05:30:12;34.78;;;14.10;;
21030;SDS011;61072;47.808;7.636;2022-12-18T05:32:40;33.58;;;13.90;;
21030;SDS011;61072;47.808;7.636;2022-12-18T05:35:08;36.60;;;13.93;;
21030;SDS011;61072;47.808;7.636;2022-12-18T05:37:36;33.20;;;12.73;;
21030;SDS011;61072;47.808;7.636;2022-12-18T05:40:08;31.00;;;12.40;;
21030;SDS011;61072;47.808;7.636;2022-12-18T05:42:35;39.97;;;14.43;;
21030;SDS011;61072;47.808;7.636;2022-12-18T05:45:02;36.38;;;12.80;;
21030;SDS011;61072;47.808;7.636;2022-12-18T05:47:30;37.03;;;13.20;;
21030;SDS011;61072;47.808;7.636;2022-12-18T05:49:57;36.92;;;14.60;;
21030;SDS011;61072;47.808;7.636;2022-12-18T05:52:23;31.67;;;13.98;;
21030;SDS011;61072;47.808;7.636;2022-12-18T05:54:50;30.95;;;13.02;;
21030;SDS011;61072;47.808;7.636;2022-12-18T05:57:17;28.45;;;12.68;;
21030;SDS011;61072;47.808;7.636;2022-12-18T05:59:43;38.20;;;14.02;;
21030;SDS011;61072;47.808;7.636;2022-12-18T06:02:10;33.50;;;12.45;;
21030;SDS011;61072;47.808;7.636;2022-12-18T06:04:37;38.53;;;14.07;;
21030;SDS011;61072;47.808;7.636;2022-12-18T06:07:04;36.05;;;13.32;;
21030;SDS011;61072;47.808;7.636;2022-12-18T06:09:31;35.90;;;13.48;;
21030;SDS011;61072;47.808;7.636;2022-12-18T06:11:58;32.80;;;12.55;;
21030;SDS011;61072;47.808;7.636;2022-12-18T06:14:25;30.90;;;12.23;;
21030;SDS011;61072;47.808;7.636;2022-12-18T06:16:52;33.72;;;13.68;;
21030;SDS011;61072;47.808;7.636;2022-12-18T06:19:18;37.92;;;13.85;;
21030;SDS011;61072;47.808;7.636;2022-12-18T06:21:46;33.35;;;12.85;;
21030;SDS011;61072;47.808;7.636;2022-12-18T06:24:12;34.85;;;13.00;;
21030;SDS011;61072;47.808;7.636;2022-12-18T06:26:39;32.13;;;12.75;;
21030;SDS011;61072;47.808;7.636;2022-12-18T06:29:06;33.35;;;13.50;;
21030;SDS011;61072;47.808;7.636;2022-12-18T06:31:33;29.42;;;12.10;;
21030;SDS011;61072;47.808;7.636;2022-12-18T06:34:02;32.13;;;12.77;;
21030;SDS011;61072;47.808;7.636;2022-12-18T06:38:56;23.92;;;10.40;;
21030;SDS011;61072;47.808;7.636;2022-12-18T06:41:23;30.58;;;12.23;;
21030;SDS011;61072;47.808;7.636;2022-12-18T06:43:50;28.67;;;11.40;;
21030;SDS011;61072;47.808;7.636;2022-12-18T06:46:23;26.05;;;11.05;;
21030;SDS011;61072;47.808;7.636;2022-12-18T06:48:49;26.02;;;11.60;;
21030;SDS011;61072;47.808;7.636;2022-12-18T06:51:17;32.10;;;13.02;;
21030;SDS011;61072;47.808;7.636;2022-12-18T06:53:45;24.23;;;11.53;;
21030;SDS011;61072;47.808;7.636;2022-12-18T06:56:12;29.88;;;11.32;;
21030;SDS011;61072;47.808;7.636;2022-12-18T06:58:39;30.58;;;12.63;;
21030;SDS011;61072;47.808;7.636;2022-12-18T07:01:08;33.30;;;13.45;;
21030;SDS011;61072;47.808;7.636;2022-12-18T07:03:37;31.65;;;12.77;;
21030;SDS011;61072;47.808;7.636;2022-12-18T07:06:05;38.17;;;14.10;;
21030;SDS011;61072;47.808;7.636;2022-12-18T07:08:32;38.15;;;13.40;;
21030;SDS011;61072;47.808;7.636;2022-12-18T07:11:02;28.35;;;12.32;;
21030;SDS011;61072;47.808;7.636;2022-12-18T07:13:30;37.83;;;12.45;;
21030;SDS011;61072;47.808;7.636;2022-12-18T07:16:04;36.05;;;14.70;;
21030;SDS011;61072;47.808;7.636;2022-12-18T07:18:43;32.67;;;13.55;;
21030;SDS011;61072;47.808;7.636;2022-12-18T07:21:12;38.30;;;13.52;;
21030;SDS011;61072;47.808;7.636;2022-12-18T07:23:40;38.00;;;13.48;;
21030;SDS011;61072;47.808;7.636;2022-12-18T07:26:08;33.28;;;12.98;;
21030;SDS011;61072;47.808;7.636;2022-12-18T07:28:37;37.55;;;14.32;;
21030;SDS011;61072;47.808;7.636;2022-12-18T07:31:12;32.83;;;13.02;;
21030;SDS011;61072;47.808;7.636;2022-12-18T07:33:43;33.72;;;13.40;;
21030;SDS011;61072;47.808;7.636;2022-12-18T07:36:11;33.20;;;12.27;;
21030;SDS011;61072;47.808;7.636;2022-12-18T07:38:38;30.40;;;14.32;;
21030;SDS011;61072;47.808;7.636;2022-12-18T07:41:09;31.58;;;12.93;;
21030;SDS011;61072;47.808;7.636;2022-12-18T07:43:37;33.88;;;13.40;;
21030;SDS011;61072;47.808;7.636;2022-12-18T07:46:07;28.08;;;13.00;;
21030;SDS011;61072;47.808;7.636;2022-12-18T07:48:34;30.45;;;11.38;;
21030;SDS011;61072;47.808;7.636;2022-12-18T07:51:02;31.83;;;14.18;;
21030;SDS011;61072;47.808;7.636;2022-12-18T07:53:30;32.55;;;13.88;;
21030;SDS011;61072;47.808;7.636;2022-12-18T07:55:58;38.90;;;16.42;;
21030;SDS011;61072;47.808;7.636;2022-12-18T07:58:46;33.60;;;14.13;;
21030;SDS011;61072;47.808;7.636;2022-12-18T08:01:14;32.40;;;13.57;;
21030;SDS011;61072;47.808;7.636;2022-12-18T08:03:41;31.58;;;14.10;;
21030;SDS011;61072;47.808;7.636;2022-12-18T08:06:08;34.40;;;13.45;;
21030;SDS011;61072;47.808;7.636;2022-12-18T08:08:35;39.42;;;14.50;;
21030;SDS011;61072;47.808;7.636;2022-12-18T08:11:03;36.15;;;14.90;;
21030;SDS011;61072;47.808;7.636;2022-12-18T08:13:30;31.17;;;14.48;;
21030;SDS011;61072;47.808;7.636;2022-12-18T08:16:02;39.38;;;16.05;;
21030;SDS011;61072;47.808;7.636;2022-12-18T08:18:31;34.90;;;15.80;;
21030;SDS011;61072;47.808;7.636;2022-12-18T08:21:09;40.80;;;14.60;;
21030;SDS011;61072;47.808;7.636;2022-12-18T08:23:38;34.95;;;13.88;;
21030;SDS011;61072;47.808;7.636;2022-12-18T08:26:08;47.60;;;14.63;;
21030;SDS011;61072;47.808;7.636;2022-12-18T08:28:37;44.92;;;13.70;;
21030;SDS011;61072;47.808;7.636;2022-12-18T08:31:03;41.17;;;13.52;;
21030;SDS011;61072;47.808;7.636;2022-12-18T08:33:31;35.05;;;14.20;;
21030;SDS011;61072;47.808;7.636;2022-12-18T08:35:59;32.42;;;12.98;;
21030;SDS011;61072;47.808;7.636;2022-12-18T08:38:26;31.27;;;12.73;;
21030;SDS011;61072;47.808;7.636;2022-12-18T08:43:28;27.75;;;11.38;;
21030;SDS011;61072;47.808;7.636;2022-12-18T08:46:14;21.70;;;10.52;;
21030;SDS011;61072;47.808;7.636;2022-12-18T08:48:42;34.97;;;13.07;;
21030;SDS011;61072;47.808;7.636;2022-12-18T08:51:09;25.42;;;10.93;;
21030;SDS011;61072;47.808;7.636;2022-12-18T08:53:39;26.65;;;11.93;;
21030;SDS011;61072;47.808;7.636;2022-12-18T08:56:07;22.65;;;10.43;;
21030;SDS011;61072;47.808;7.636;2022-12-18T08:58:34;22.60;;;10.13;;
21030;SDS011;61072;47.808;7.636;2022-12-18T09:01:05;26.33;;;13.07;;
21030;SDS011;61072;47.808;7.636;2022-12-18T09:03:35;20.02;;;10.63;;
21030;SDS011;61072;47.808;7.636;2022-12-18T09:06:03;25.83;;;11.68;;
21030;SDS011;61072;47.808;7.636;2022-12-18T09:08:30;20.40;;;9.77;;
21030;SDS011;61072;47.808;7.636;2022-12-18T09:10:57;21.77;;;10.40;;
21030;SDS011;61072;47.808;7.636;2022-12-18T09:13:25;25.77;;;11.48;;
21030;SDS011;61072;47.808;7.636;2022-12-18T09:15:54;25.90;;;11.68;;
21030;SDS011;61072;47.808;7.636;2022-12-18T09:18:22;22.10;;;11.55;;
21030;SDS011;61072;47.808;7.636;2022-12-18T09:20:49;18.90;;;10.23;;
21030;SDS011;61072;47.808;7.636;2022-12-18T09:23:18;23.63;;;11.45;;
21030;SDS011;61072;47.808;7.636;2022-12-18T09:25:48;19.83;;;10.90;;
21030;SDS011;61072;47.808;7.636;2022-12-18T09:28:16;26.63;;;11.35;;
21030;SDS011;61072;47.808;7.636;2022-12-18T09:30:46;21.83;;;10.65;;
21030;SDS011;61072;47.808;7.636;2022-12-18T09:33:15;22.73;;;11.55;;
21030;SDS011;61072;47.808;7.636;2022-12-18T09:35:43;21.40;;;11.50;;
21030;SDS011;61072;47.808;7.636;2022-12-18T09:38:12;20.80;;;11.18;;
21030;SDS011;61072;47.808;7.636;2022-12-18T09:40:42;22.67;;;11.20;;
21030;SDS011;61072;47.808;7.636;2022-12-18T09:43:15;25.30;;;13.00;;
21030;SDS011;61072;47.808;7.636;2022-12-18T09:45:58;30.08;;;11.35;;
21030;SDS011;61072;47.808;7.636;2022-12-18T09:48:34;27.38;;;12.57;;
21030;SDS011;61072;47.808;7.636;2022-12-18T09:51:10;27.15;;;12.32;;
21030;SDS011;61072;47.808;7.636;2022-12-18T09:53:43;23.48;;;10.90;;
21030;SDS011;61072;47.808;7.636;2022-12-18T09:56:15;30.77;;;12.45;;
21030;SDS011;61072;47.808;7.636;2022-12-18T10:01:21;31.13;;;13.85;;
21030;SDS011;61072;47.808;7.636;2022-12-18T10:03:49;30.73;;;14.52;;
21030;SDS011;61072;47.808;7.636;2022-12-18T10:06:25;33.83;;;15.13;;
21030;SDS011;61072;47.808;7.636;2022-12-18T10:08:59;34.08;;;14.45;;
21030;SDS011;61072;47.808;7.636;2022-12-18T10:12:24;36.42;;;14.35;;
21030;SDS011;61072;47.808;7.636;2022-12-18T10:17:20;39.78;;;14.07;;
21030;SDS011;61072;47.808;7.636;2022-12-18T10:20:02;36.60;;;12.98;;
21030;SDS011;61072;47.808;7.636;2022-12-18T10:22:57;34.28;;;14.48;;
21030;SDS011;61072;47.808;7.636;2022-12-18T10:25:50;29.35;;;13.82;;
21030;SDS011;61072;47.808;7.636;2022-12-18T10:28:34;26.58;;;12.20;;
21030;SDS011;61072;47.808;7.636;2022-12-18T10:31:07;31.52;;;14.77;;
21030;SDS011;61072;47.808;7.636;2022-12-18T10:33:43;34.63;;;14.48;;
21030;SDS011;61072;47.808;7.636;2022-12-18T10:36:10;32.00;;;14.98;;
21030;SDS011;61072;47.808;7.636;2022-12-18T10:38:37;30.15;;;14.52;;
21030;SDS011;61072;47.808;7.636;2022-12-18T10:44:17;28.60;;;14.40;;
21030;SDS011;61072;47.808;7.636;2022-12-18T10:46:45;29.17;;;13.27;;
21030;SDS011;61072;47.808;7.636;2022-12-18T10:49:33;31.38;;;14.38;;
21030;SDS011;61072;47.808;7.636;2022-12-18T10:52:11;34.70;;;14.32;;
21030;SDS011;61072;47.808;7.636;2022-12-18T10:54:46;33.50;;;14.65;;
21030;SDS011;61072;47.808;7.636;2022-12-18T10:57:38;27.63;;;13.55;;
21030;SDS011;61072;47.808;7.636;2022-12-18T11:00:27;24.88;;;12.10;;
21030;SDS011;61072;47.808;7.636;2022-12-18T11:02:56;30.55;;;14.02;;
21030;SDS011;61072;47.808;7.636;2022-12-18T11:05:28;33.20;;;14.13;;
21030;SDS011;61072;47.808;7.636;2022-12-18T11:07:56;34.58;;;14.85;;
21030;SDS011;61072;47.808;7.636;2022-12-18T11:10:35;32.92;;;15.10;;
21030;SDS011;61072;47.808;7.636;2022-12-18T11:13:17;29.55;;;13.35;;
21030;SDS011;61072;47.808;7.636;2022-12-18T11:15:46;40.75;;;15.20;;
21030;SDS011;61072;47.808;7.636;2022-12-18T11:18:32;32.83;;;15.07;;
21030;SDS011;61072;47.808;7.636;2022-12-18T11:21:07;29.27;;;14.73;;
21030;SDS011;61072;47.808;7.636;2022-12-18T11:23:36;33.35;;;14.95;;
21030;SDS011;61072;47.808;7.636;2022-12-18T11:26:10;27.55;;;13.63;;
21030;SDS011;61072;47.808;7.636;2022-12-18T11:28:51;27.13;;;13.70;;
21030;SDS011;61072;47.808;7.636;2022-12-18T11:31:33;28.60;;;13.73;;
21030;SDS011;61072;47.808;7.636;2022-12-18T11:36:54;39.30;;;17.88;;
21030;SDS011;61072;47.808;7.636;2022-12-18T11:42:09;42.60;;;18.35;;
21030;SDS011;61072;47.808;7.636;2022-12-18T11:44:50;39.95;;;21.80;;
21030;SDS011;61072;47.808;7.636;2022-12-18T11:49:50;30.05;;;14.73;;
21030;SDS011;61072;47.808;7.636;2022-12-18T11:52:19;27.90;;;14.43;;
21030;SDS011;61072;47.808;7.636;2022-12-18T11:54:54;25.70;;;12.90;;
21030;SDS011;61072;47.808;7.636;2022-12-18T12:00:11;23.85;;;13.25;;
21030;SDS011;61072;47.808;7.636;2022-12-18T12:02:44;25.23;;;12.88;;
21030;SDS011;61072;47.808;7.636;2022-12-18T12:08:24;28.60;;;14.35;;
21030;SDS011;61072;47.808;7.636;2022-12-18T12:11:11;30.75;;;15.68;;
21030;SDS011;61072;47.808;7.636;2022-12-18T12:22:12;26.70;;;13.82;;
21030;SDS011;61072;47.808;7.636;2022-12-18T12:24:58;23.65;;;13.48;;
21030;SDS011;61072;47.808;7.636;2022-12-18T12:27:39;27.50;;;14.13;;
21030;SDS011;61072;47.808;7.636;2022-12-18T12:30:21;22.25;;;11.65;;
21030;SDS011;61072;47.808;7.636;2022-12-18T12:33:03;22.15;;;12.10;;
21030;SDS011;61072;47.808;7.636;2022-12-18T12:35:46;23.30;;;13.57;;
21030;SDS011;61072;47.808;7.636;2022-12-18T12:38:34;25.95;;;13.27;;
21030;SDS011;61072;47.808;7.636;2022-12-18T12:41:17;23.38;;;13.45;;
21030;SDS011;61072;47.808;7.636;2022-12-18T12:44:07;28.25;;;13.95;;
21030;SDS011;61072;47.808;7.636;2022-12-18T12:46:40;27.50;;;13.52;;
21030;SDS011;61072;47.808;7.636;2022-12-18T12:49:18;31.17;;;16.65;;
21030;SDS011;61072;47.808;7.636;2022-12-18T12:52:07;26.98;;;15.73;;
21030;SDS011;61072;47.808;7.636;2022-12-18T12:54:40;32.65;;;15.88;;
21030;SDS011;61072;47.808;7.636;2022-12-18T12:57:09;30.75;;;15.75;;
21030;SDS011;61072;47.808;7.636;2022-12-18T12:59:54;30.95;;;15.75;;
21030;SDS011;61072;47.808;7.636;2022-12-18T13:02:42;22.90;;;13.30;;
21030;SDS011;61072;47.808;7.636;2022-12-18T13:05:29;34.35;;;15.68;;
21030;SDS011;61072;47.808;7.636;2022-12-18T13:10:36;30.25;;;15.15;;
21030;SDS011;61072;47.808;7.636;2022-12-18T13:13:05;28.73;;;16.38;;
21030;SDS011;61072;47.808;7.636;2022-12-18T13:15:46;29.95;;;16.00;;
21030;SDS011;61072;47.808;7.636;2022-12-18T13:20:48;29.92;;;16.40;;
21030;SDS011;61072;47.808;7.636;2022-12-18T13:31:13;30.38;;;17.88;;
21030;SDS011;61072;47.808;7.636;2022-12-18T13:33:53;28.92;;;15.43;;
21030;SDS011;61072;47.808;7.636;2022-12-18T13:36:52;30.45;;;13.43;;
21030;SDS011;61072;47.808;7.636;2022-12-18T13:44:35;30.27;;;14.27;;
21030;SDS011;61072;47.808;7.636;2022-12-18T13:50:20;28.98;;;14.32;;
21030;SDS011;61072;47.808;7.636;2022-12-18T13:53:16;19.50;;;11.82;;
21030;SDS011;61072;47.808;7.636;2022-12-18T13:55:49;26.35;;;14.02;;
21030;SDS011;61072;47.808;7.636;2022-12-18T13:58:16;24.73;;;13.90;;
21030;SDS011;61072;47.808;7.636;2022-12-18T14:00:43;27.77;;;13.48;;
21030;SDS011;61072;47.808;7.636;2022-12-18T14:03:19;22.88;;;12.75;;
21030;SDS011;61072;47.808;7.636;2022-12-18T14:06:05;23.40;;;12.95;;
21030;SDS011;61072;47.808;7.636;2022-12-18T14:08:40;27.40;;;13.68;;
21030;SDS011;61072;47.808;7.636;2022-12-18T14:11:18;26.10;;;13.40;;
21030;SDS011;61072;47.808;7.636;2022-12-18T14:13:48;32.40;;;15.65;;
21030;SDS011;61072;47.808;7.636;2022-12-18T14:16:16;29.45;;;14.45;;
21030;SDS011;61072;47.808;7.636;2022-12-18T14:18:53;22.88;;;12.27;;
21030;SDS011;61072;47.808;7.636;2022-12-18T14:21:40;29.48;;;13.35;;
21030;SDS011;61072;47.808;7.636;2022-12-18T14:24:16;23.98;;;12.68;;
21030;SDS011;61072;47.808;7.636;2022-12-18T14:26:45;23.50;;;12.98;;
21030;SDS011;61072;47.808;7.636;2022-12-18T14:29:28;24.35;;;13.52;;
21030;SDS011;61072;47.808;7.636;2022-12-18T14:32:07;26.02;;;13.07;;
21030;SDS011;61072;47.808;7.636;2022-12-18T14:34:41;22.67;;;12.45;;
21030;SDS011;61072;47.808;7.636;2022-12-18T14:37:10;28.33;;;13.98;;
21030;SDS011;61072;47.808;7.636;2022-12-18T14:39:38;30.15;;;14.77;;
21030;SDS011;61072;47.808;7.636;2022-12-18T14:42:05;26.13;;;13.60;;
21030;SDS011;61072;47.808;7.636;2022-12-18T14:44:31;27.20;;;14.38;;
21030;SDS011;61072;47.808;7.636;2022-12-18T14:47:15;27.17;;;13.82;;
21030;SDS011;61072;47.808;7.636;2022-12-18T14:49:42;29.77;;;15.52;;
21030;SDS011;61072;47.808;7.636;2022-12-18T14:52:22;38.50;;;20.67;;
21030;SDS011;61072;47.808;7.636;2022-12-18T14:54:53;35.28;;;19.58;;
21030;SDS011;61072;47.808;7.636;2022-12-18T14:57:24;35.45;;;18.65;;
21030;SDS011;61072;47.808;7.636;2022-12-18T15:00:03;32.25;;;18.60;;
21030;SDS011;61072;47.808;7.636;2022-12-18T15:02:32;37.60;;;20.33;;
21030;SDS011;61072;47.808;7.636;2022-12-18T15:07:52;37.05;;;20.83;;
21030;SDS011;61072;47.808;7.636;2022-12-18T15:10:21;37.70;;;19.43;;
21030;SDS011;61072;47.808;7.636;2022-12-18T15:13:05;35.60;;;19.40;;
21030;SDS011;61072;47.808;7.636;2022-12-18T15:20:33;46.50;;;22.85;;
21030;SDS011;61072;47.808;7.636;2022-12-18T15:25:48;41.28;;;21.52;;
21030;SDS011;61072;47.808;7.636;2022-12-18T15:36:07;39.28;;;20.65;;
21030;SDS011;61072;47.808;7.636;2022-12-18T15:38:36;40.83;;;21.35;;
21030;SDS011;61072;47.808;7.636;2022-12-18T15:41:02;40.13;;;21.15;;
21030;SDS011;61072;47.808;7.636;2022-12-18T15:43:34;39.30;;;19.17;;
21030;SDS011;61072;47.808;7.636;2022-12-18T15:46:15;34.85;;;18.58;;
21030;SDS011;61072;47.808;7.636;2022-12-18T15:48:44;38.00;;;18.83;;
21030;SDS011;61072;47.808;7.636;2022-12-18T15:53:41;30.70;;;16.77;;
21030;SDS011;61072;47.808;7.636;2022-12-18T15:56:13;33.47;;;18.38;;
21030;SDS011;61072;47.808;7.636;2022-12-18T15:59:00;31.92;;;17.58;;
21030;SDS011;61072;47.808;7.636;2022-12-18T16:01:29;34.17;;;18.85;;
21030;SDS011;61072;47.808;7.636;2022-12-18T16:03:57;38.70;;;20.03;;
21030;SDS011;61072;47.808;7.636;2022-12-18T16:06:24;31.67;;;18.08;;
21030;SDS011;61072;47.808;7.636;2022-12-18T16:08:50;39.20;;;21.23;;
21030;SDS011;61072;47.808;7.636;2022-12-18T16:14:16;39.63;;;21.60;;
21030;SDS011;61072;47.808;7.636;2022-12-18T16:16:44;36.63;;;19.95;;
21030;SDS011;61072;47.808;7.636;2022-12-18T16:19:11;41.80;;;21.52;;
21030;SDS011;61072;47.808;7.636;2022-12-18T16:21:38;38.03;;;19.83;;
21030;SDS011;61072;47.808;7.636;2022-12-18T16:24:07;38.03;;;19.90;;
21030;SDS011;61072;47.808;7.636;2022-12-18T16:26:41;37.90;;;20.98;;
21030;SDS011;61072;47.808;7.636;2022-12-18T16:29:08;41.33;;;21.48;;
21030;SDS011;61072;47.808;7.636;2022-12-18T16:31:37;43.58;;;22.35;;